KORF/ORF METAR and TAF weather

Enter ICAO airport designator
Station Type Date Time Source
KORF METAR 2019/09/21 20:51 UTC NOAA

KORF 212051Z 03003KT 10SM CLR 28/17 A3019 RMK AO2 SLP222 T02830172 57014


Station Type Date Time Source
KORF Decoded METAR 2019/09/21 20:51 UTC NOAA

NORFOLK INTERNATIONAL AIRPORT , VA, United States (KORF) 36-54N 076-12W 14M
Sep 21, 2019 - 04:51 PM EDT / 2019.09.21 2051 UTC
Wind: from the NNE (030 degrees) at 3 MPH (3 KT):0
Visibility: 10 mile(s):0
Sky conditions: clear
Temperature: 82.9 F (28.3 C)
Dew Point: 63.0 F (17.2 C)
Relative Humidity: 50%
Pressure (altimeter): 30.19 in. Hg (1022 hPa)
Pressure tendency: 0.04 inches (1.4 hPa) lower than three hours ago
ob: KORF 212051Z 03003KT 10SM CLR 28/17 A3019 RMK AO2 SLP222 T02830172 57014
cycle: 21

Station Type Date Time Source
KORF TAF 2019/09/21 18:22 UTC NOAA

TAF KORF 211720Z 2118/2218 22008KT P6SM SKC
FM212000 18005KT P6SM SKC
FM220600 21007KT P6SM SKC

Example: see airport list